createdAt,value
2018-09-11T00:01:32.869Z,20.00
2018-09-11T00:03:35.757Z,20.00
2018-09-11T00:05:38.645Z,20.00
2018-09-11T00:07:43.071Z,19.90
2018-09-11T00:09:45.933Z,19.90
2018-09-11T00:11:49.020Z,19.90
2018-09-11T00:13:51.905Z,19.90
2018-09-11T00:15:54.780Z,19.90
2018-09-11T00:17:57.815Z,19.80
2018-09-11T00:20:00.758Z,19.80
2018-09-11T00:22:03.641Z,19.80
2018-09-11T00:24:06.541Z,19.70
2018-09-11T00:26:10.206Z,19.70
2018-09-11T00:28:13.104Z,19.60
2018-09-11T00:30:16.018Z,19.60
2018-09-11T00:32:18.900Z,19.60
2018-09-11T00:34:21.790Z,19.60
2018-09-11T00:36:24.696Z,19.60
2018-09-11T00:38:27.569Z,19.60
2018-09-11T00:40:30.453Z,19.50
2018-09-11T00:42:33.473Z,19.50
2018-09-11T00:44:36.360Z,19.50
2018-09-11T00:46:39.224Z,19.50
2018-09-11T00:48:42.121Z,19.50
2018-09-11T00:50:45.773Z,19.40
2018-09-11T00:52:48.644Z,19.40
2018-09-11T00:54:51.565Z,19.40
2018-09-11T00:56:54.495Z,19.40
2018-09-11T00:58:58.125Z,19.30
2018-09-11T01:01:01.173Z,19.30
2018-09-11T01:03:04.133Z,19.30
2018-09-11T01:05:07.835Z,19.20
2018-09-11T01:07:11.578Z,19.20
2018-09-11T01:09:14.508Z,19.20
2018-09-11T01:11:17.437Z,19.20
2018-09-11T01:13:20.422Z,19.20
2018-09-11T01:15:23.395Z,19.20
2018-09-11T01:17:26.337Z,19.20
2018-09-11T01:19:29.322Z,19.10
2018-09-11T01:21:33.774Z,19.10
2018-09-11T01:23:37.491Z,19.10
2018-09-11T01:25:40.574Z,19.10
2018-09-11T01:27:43.493Z,19.10
2018-09-11T01:29:46.526Z,19.00
2018-09-11T01:31:50.238Z,19.00
2018-09-11T01:33:53.169Z,19.00
2018-09-11T01:35:56.111Z,19.00
2018-09-11T01:37:59.149Z,19.00
2018-09-11T01:40:02.175Z,18.90
2018-09-11T01:42:05.085Z,18.90
2018-09-11T01:44:08.055Z,18.90
2018-09-11T01:46:10.974Z,18.90
2018-09-11T01:48:13.985Z,18.90
2018-09-11T01:50:17.073Z,18.90
2018-09-11T01:52:20.869Z,18.80
2018-09-11T01:54:24.572Z,18.80
2018-09-11T01:56:28.294Z,18.80
2018-09-11T01:58:31.218Z,18.70
2018-09-11T02:00:34.955Z,18.70
2018-09-11T02:02:38.681Z,18.70
2018-09-11T02:04:41.610Z,18.70
2018-09-11T02:06:44.534Z,18.70
2018-09-11T02:08:47.497Z,18.60
2018-09-11T02:10:51.179Z,18.60
2018-09-11T02:12:54.128Z,18.60
2018-09-11T02:14:57.125Z,18.60
2018-09-11T02:17:00.149Z,18.50
2018-09-11T02:19:03.826Z,18.50
2018-09-11T02:21:06.864Z,18.50
2018-09-11T02:23:09.793Z,18.50
2018-09-11T02:25:12.723Z,18.40
2018-09-11T02:27:15.780Z,18.40
2018-09-11T02:29:19.481Z,18.30
2018-09-11T02:31:23.159Z,18.30
2018-09-11T02:33:26.983Z,18.30
2018-09-11T02:35:30.682Z,18.20
2018-09-11T02:37:34.486Z,18.20
2018-09-11T02:39:38.211Z,18.20
2018-09-11T02:41:41.158Z,18.20
2018-09-11T02:43:44.849Z,18.10
2018-09-11T02:45:49.313Z,18.10
2018-09-11T02:47:52.243Z,18.10
2018-09-11T02:49:56.693Z,18.10
2018-09-11T02:52:00.498Z,18.00
2018-09-11T02:54:04.190Z,18.00
2018-09-11T02:56:08.546Z,18.00
2018-09-11T02:58:11.610Z,18.00
2018-09-11T03:00:14.570Z,17.90
2018-09-11T03:02:18.254Z,17.90
2018-09-11T03:04:22.816Z,17.80
2018-09-11T03:06:25.875Z,17.90
2018-09-11T03:08:29.570Z,17.80
2018-09-11T03:10:33.285Z,17.80
2018-09-11T03:12:36.239Z,17.80
2018-09-11T03:14:39.929Z,17.80
2018-09-11T03:16:42.986Z,17.80
2018-09-11T03:18:45.951Z,17.80
2018-09-11T03:20:48.862Z,17.80
2018-09-11T03:22:51.904Z,17.80
2018-09-11T03:24:54.797Z,17.70
2018-09-11T03:26:57.719Z,17.70
2018-09-11T03:29:00.849Z,17.70
2018-09-11T03:31:03.789Z,17.70
2018-09-11T03:33:06.904Z,17.70
2018-09-11T03:35:10.625Z,17.70
2018-09-11T03:37:13.558Z,17.70
2018-09-11T03:39:16.502Z,17.70
2018-09-11T03:41:19.563Z,17.60
2018-09-11T03:43:22.638Z,17.60
2018-09-11T03:45:26.361Z,17.60
2018-09-11T03:47:29.425Z,17.60
2018-09-11T03:49:33.124Z,17.60
2018-09-11T03:51:36.849Z,17.60
2018-09-11T03:53:39.807Z,17.60
2018-09-11T03:55:58.561Z,17.50
2018-09-11T03:58:34.427Z,17.50
2018-09-11T04:03:03.850Z,17.60
2018-09-11T04:05:06.773Z,17.50
2018-09-11T04:07:09.699Z,17.50
2018-09-11T04:09:12.985Z,17.50
2018-09-11T04:11:16.713Z,17.50
2018-09-11T04:13:19.637Z,17.40
2018-09-11T04:15:22.594Z,17.40
2018-09-11T04:17:25.567Z,17.40
2018-09-11T04:19:28.489Z,17.40
2018-09-11T04:21:31.548Z,17.40
2018-09-11T04:23:34.581Z,17.40
2018-09-11T04:25:38.273Z,17.30
2018-09-11T04:27:42.083Z,17.30
2018-09-11T04:29:45.778Z,17.30
2018-09-11T04:31:49.594Z,17.30
2018-09-11T04:33:52.685Z,17.30
2018-09-11T04:35:55.614Z,17.30
2018-09-11T04:37:58.555Z,17.30
2018-09-11T04:40:01.650Z,17.30
2018-09-11T04:42:04.587Z,17.30
2018-09-11T04:44:08.321Z,17.20
2018-09-11T04:46:11.406Z,17.20
2018-09-11T04:48:14.337Z,17.20
2018-09-11T04:50:17.276Z,17.20
2018-09-11T04:52:20.320Z,17.20
2018-09-11T04:54:24.139Z,17.10
2018-09-11T04:56:27.079Z,17.10
2018-09-11T04:58:30.209Z,17.10
2018-09-11T05:00:33.942Z,17.10
2018-09-11T05:02:36.866Z,17.10
2018-09-11T05:04:40.815Z,17.10
2018-09-11T05:06:44.510Z,17.00
2018-09-11T05:08:48.198Z,17.00
2018-09-11T05:10:51.968Z,17.00
2018-09-11T05:12:54.900Z,17.00
2018-09-11T05:14:57.837Z,17.00
2018-09-11T05:17:00.960Z,17.00
2018-09-11T05:19:03.902Z,17.00
2018-09-11T05:21:06.843Z,17.00
2018-09-11T05:23:09.802Z,17.00
2018-09-11T05:25:12.730Z,17.00
2018-09-11T05:27:15.666Z,17.00
2018-09-11T05:29:18.713Z,17.00
2018-09-11T05:31:21.654Z,17.00
2018-09-11T05:33:24.578Z,17.00
2018-09-11T05:35:27.528Z,17.00
2018-09-11T05:37:30.448Z,17.00
2018-09-11T05:39:33.581Z,17.00
2018-09-11T05:41:36.746Z,17.10
2018-09-11T05:43:40.546Z,17.10
2018-09-11T05:45:44.358Z,17.10
2018-09-11T05:47:47.327Z,17.10
2018-09-11T05:49:51.033Z,17.10
2018-09-11T05:51:54.743Z,17.10
2018-09-11T05:53:58.997Z,17.20
2018-09-11T05:56:02.705Z,17.20
2018-09-11T05:58:05.730Z,17.20
2018-09-11T06:00:09.550Z,17.30
2018-09-11T06:02:12.482Z,17.20
2018-09-11T06:04:15.425Z,17.30
2018-09-11T06:06:18.538Z,17.30
2018-09-11T06:08:21.475Z,17.30
2018-09-11T06:10:24.461Z,17.30
2018-09-11T06:12:27.419Z,17.30
2018-09-11T06:14:31.133Z,17.40
2018-09-11T06:16:34.825Z,17.40
2018-09-11T06:18:37.859Z,17.40
2018-09-11T06:20:40.890Z,17.50
2018-09-11T06:22:44.597Z,17.60
2018-09-11T06:24:48.346Z,17.60
2018-09-11T06:26:51.296Z,17.60
2018-09-11T06:28:54.216Z,17.70
2018-09-11T06:30:57.173Z,17.70
2018-09-11T06:33:00.106Z,17.70
2018-09-11T06:35:03.801Z,17.80
2018-09-11T06:37:07.650Z,17.90
2018-09-11T06:39:13.173Z,17.90
2018-09-11T06:41:16.955Z,18.00
2018-09-11T06:43:19.988Z,18.00
2018-09-11T06:45:22.907Z,18.00
2018-09-11T06:47:26.622Z,18.20
2018-09-11T06:49:30.366Z,18.20
2018-09-11T06:51:33.301Z,18.20
2018-09-11T06:53:37.025Z,18.30
2018-09-11T06:55:40.108Z,18.30
2018-09-11T06:57:43.833Z,18.40
2018-09-11T06:59:46.893Z,18.40
2018-09-11T07:01:50.720Z,18.50
2018-09-11T07:03:53.638Z,18.50
2018-09-11T07:05:56.562Z,18.60
2018-09-11T07:08:00.464Z,18.60
2018-09-11T07:10:04.164Z,18.70
2018-09-11T07:12:07.971Z,18.70
2018-09-11T07:14:10.918Z,18.70
2018-09-11T07:16:13.852Z,18.80
2018-09-11T07:18:16.786Z,18.80
2018-09-11T07:20:20.056Z,18.90
2018-09-11T07:22:22.692Z,18.90
2018-09-11T07:24:25.646Z,18.90
2018-09-11T07:26:29.389Z,19.10
2018-09-11T07:28:32.314Z,19.00
2018-09-11T07:30:35.326Z,19.10
2018-09-11T07:32:39.026Z,19.20
2018-09-11T07:34:42.828Z,19.20
2018-09-11T07:36:46.521Z,19.30
2018-09-11T07:38:50.330Z,19.40
2018-09-11T07:40:54.221Z,19.40
2018-09-11T07:42:57.147Z,19.40
2018-09-11T07:45:00.123Z,19.20
2018-09-11T07:47:03.055Z,19.50
2018-09-11T07:49:06.064Z,19.60
2018-09-11T07:51:09.787Z,19.60
2018-09-11T07:53:12.714Z,19.60
2018-09-11T07:55:15.732Z,19.70
2018-09-11T07:57:19.588Z,19.70
2018-09-11T07:59:22.532Z,19.70
2018-09-11T08:01:25.462Z,19.80
2018-09-11T08:03:28.436Z,19.80
2018-09-11T08:05:31.469Z,19.80
2018-09-11T08:07:35.183Z,19.90
2018-09-11T08:09:38.217Z,19.90
2018-09-11T08:11:41.095Z,20.00
2018-09-11T08:13:44.114Z,20.00
2018-09-11T08:15:47.930Z,20.10
2018-09-11T08:17:51.059Z,20.10
2018-09-11T08:19:54.033Z,20.20
2018-09-11T08:21:56.977Z,20.20
2018-09-11T08:23:59.922Z,20.30
2018-09-11T08:26:04.346Z,20.30
2018-09-11T08:28:08.170Z,20.40
2018-09-11T08:30:11.849Z,20.50
2018-09-11T08:32:14.870Z,20.50
2018-09-11T08:34:17.814Z,20.50
2018-09-11T08:36:20.734Z,20.60
2018-09-11T08:38:23.658Z,20.60
2018-09-11T08:40:26.719Z,20.70
2018-09-11T08:42:29.670Z,20.70
2018-09-11T08:44:33.354Z,20.80
2018-09-11T08:46:37.141Z,20.90
2018-09-11T08:48:40.026Z,20.80
2018-09-11T08:50:42.947Z,20.90
2018-09-11T08:52:45.953Z,20.90
2018-09-11T08:54:48.849Z,21.00
2018-09-11T08:56:51.879Z,21.00
2018-09-11T08:58:56.337Z,21.10
2018-09-11T09:00:59.248Z,21.10
2018-09-11T09:03:02.230Z,21.10
2018-09-11T09:05:05.186Z,21.20
2018-09-11T09:07:08.123Z,21.20
2018-09-11T09:09:11.927Z,21.30
2018-09-11T09:11:15.734Z,21.30
2018-09-11T09:13:19.439Z,21.30
2018-09-11T09:15:22.378Z,21.30
2018-09-11T09:17:25.445Z,21.40
2018-09-11T09:19:28.370Z,21.40
2018-09-11T09:21:32.058Z,21.50
2018-09-11T09:23:35.038Z,21.50
2018-09-11T09:25:37.970Z,21.50
2018-09-11T09:27:41.133Z,21.60
2018-09-11T09:29:44.163Z,21.60
2018-09-11T09:31:47.062Z,21.70
2018-09-11T09:33:49.995Z,21.70
2018-09-11T09:35:53.030Z,21.80
2018-09-11T09:37:55.959Z,21.80
2018-09-11T09:39:58.878Z,21.90
2018-09-11T09:42:01.929Z,21.90
2018-09-11T09:44:04.885Z,21.90
2018-09-11T09:46:07.802Z,22.00
2018-09-11T09:48:10.863Z,22.00
2018-09-11T09:50:14.659Z,22.10
2018-09-11T09:52:17.665Z,22.10
2018-09-11T09:54:20.730Z,22.20
2018-09-11T09:56:23.663Z,22.20
2018-09-11T09:58:26.587Z,22.30
2018-09-11T10:00:29.595Z,22.30
2018-09-11T10:02:32.556Z,22.40
2018-09-11T10:04:36.237Z,22.40
2018-09-11T10:06:39.215Z,22.40
2018-09-11T10:08:42.135Z,22.50
2018-09-11T10:10:45.056Z,22.50
2018-09-11T10:12:48.015Z,22.60
2018-09-11T10:14:50.954Z,22.60
2018-09-11T10:16:54.645Z,22.70
2018-09-11T10:18:57.599Z,22.70
2018-09-11T10:21:00.522Z,22.70
2018-09-11T10:23:04.215Z,22.80
2018-09-11T10:25:08.034Z,22.80
2018-09-11T10:27:11.723Z,22.90
2018-09-11T10:29:14.650Z,22.80
2018-09-11T10:31:17.594Z,22.90
2018-09-11T10:33:21.386Z,22.90
2018-09-11T10:35:24.306Z,22.90
2018-09-11T10:37:27.299Z,23.00
2018-09-11T10:39:30.238Z,23.00
2018-09-11T10:41:33.146Z,23.00
2018-09-11T10:43:36.085Z,23.10
2018-09-11T10:45:39.035Z,23.10
2018-09-11T10:47:41.982Z,23.10
2018-09-11T10:49:45.710Z,23.20
2018-09-11T10:51:48.700Z,23.10
2018-09-11T10:53:51.603Z,23.20
2018-09-11T10:55:54.842Z,23.20
2018-09-11T10:57:57.767Z,23.20
2018-09-11T11:00:00.702Z,23.30
2018-09-11T11:02:04.435Z,23.30
2018-09-11T11:04:07.376Z,23.30
2018-09-11T11:06:10.326Z,23.30
2018-09-11T11:08:13.294Z,23.40
2018-09-11T11:10:16.266Z,23.40
2018-09-11T11:12:19.183Z,23.40
2018-09-11T11:14:22.290Z,23.40
2018-09-11T11:16:26.092Z,23.50
2018-09-11T11:18:29.768Z,23.50
2018-09-11T11:20:32.718Z,23.50
2018-09-11T11:22:35.760Z,23.50
2018-09-11T11:24:39.442Z,23.60
2018-09-11T11:26:43.264Z,23.60
2018-09-11T11:28:46.943Z,23.70
2018-09-11T11:30:50.665Z,23.70
2018-09-11T11:32:54.380Z,23.70
2018-09-11T11:34:57.316Z,23.70
2018-09-11T11:37:00.427Z,23.80
2018-09-11T11:39:04.062Z,23.80
2018-09-11T11:41:07.003Z,23.80
2018-09-11T11:43:10.815Z,23.90
2018-09-11T11:45:14.526Z,24.00
2018-09-11T11:47:17.451Z,23.90
2018-09-11T11:49:20.375Z,24.00
2018-09-11T11:51:24.177Z,24.10
2018-09-11T11:53:27.873Z,24.10
2018-09-11T11:55:31.049Z,24.10
2018-09-11T11:57:33.947Z,24.20
2018-09-11T11:59:37.631Z,24.30
2018-09-11T12:01:41.326Z,24.30
2018-09-11T12:03:44.454Z,24.30
2018-09-11T12:05:47.377Z,24.40
2018-09-11T12:07:51.861Z,24.50
2018-09-11T12:09:55.019Z,24.50
2018-09-11T12:11:58.704Z,24.60
2018-09-11T12:14:02.522Z,24.70
2018-09-11T12:16:06.277Z,24.70
2018-09-11T12:18:09.224Z,24.70
2018-09-11T12:20:12.146Z,24.80
2018-09-11T12:22:15.173Z,24.80
2018-09-11T12:24:18.975Z,24.90
2018-09-11T12:26:22.700Z,25.00
2018-09-11T12:28:25.663Z,25.00
2018-09-11T12:30:29.385Z,25.00
2018-09-11T12:32:32.305Z,25.00
2018-09-11T12:34:35.355Z,25.10
2018-09-11T12:36:39.133Z,25.20
2018-09-11T12:38:42.062Z,25.20
2018-09-11T12:40:45.034Z,25.30
2018-09-11T12:42:48.072Z,25.30
2018-09-11T12:44:51.762Z,25.40
2018-09-11T12:46:55.050Z,25.40
2018-09-11T12:48:57.766Z,25.50
2018-09-11T12:51:00.674Z,25.50
2018-09-11T12:53:03.622Z,25.60
2018-09-11T12:55:06.579Z,25.70
2018-09-11T12:57:10.266Z,25.80
2018-09-11T12:59:14.003Z,25.80
2018-09-11T13:01:16.946Z,25.80
2018-09-11T13:03:20.645Z,25.90
2018-09-11T13:05:24.572Z,26.00
2018-09-11T13:07:28.274Z,26.00
2018-09-11T13:09:32.017Z,26.10
2018-09-11T13:11:34.937Z,26.00
2018-09-11T13:13:38.620Z,26.20
2018-09-11T13:15:41.552Z,26.20
2018-09-11T13:17:45.370Z,26.30
2018-09-11T13:19:48.306Z,26.30
2018-09-11T13:21:51.222Z,26.30
2018-09-11T13:23:54.389Z,26.40
2018-09-11T13:25:58.065Z,26.50
2018-09-11T13:28:01.010Z,26.50
2018-09-11T13:30:03.974Z,26.60
2018-09-11T13:32:06.915Z,26.60
2018-09-11T13:34:09.848Z,26.70
2018-09-11T13:36:12.898Z,26.70
2018-09-11T13:38:16.593Z,26.90
2018-09-11T13:40:19.506Z,26.80
2018-09-11T13:42:22.465Z,26.90
2018-09-11T13:44:26.172Z,27.10
2018-09-11T13:46:29.129Z,27.00
2018-09-11T13:48:32.086Z,27.10
2018-09-11T13:50:35.018Z,27.20
2018-09-11T13:52:37.962Z,27.20
2018-09-11T13:54:41.000Z,27.30
2018-09-11T13:56:43.924Z,27.40
2018-09-11T13:58:46.958Z,27.40
2018-09-11T14:00:50.693Z,27.50
2018-09-11T14:02:53.611Z,27.50
2018-09-11T14:04:58.146Z,27.60
2018-09-11T14:07:01.878Z,27.60
2018-09-11T14:09:04.861Z,27.60
2018-09-11T14:11:07.778Z,27.70
2018-09-11T14:13:10.745Z,27.70
2018-09-11T14:15:13.678Z,27.70
2018-09-11T14:17:16.610Z,27.80
2018-09-11T14:19:19.570Z,27.80
2018-09-11T14:21:22.516Z,27.80
2018-09-11T14:23:26.209Z,27.90
2018-09-11T14:25:30.038Z,27.90
2018-09-11T14:27:32.965Z,27.80
2018-09-11T14:29:35.940Z,27.90
2018-09-11T14:31:38.899Z,27.90
2018-09-11T14:33:41.810Z,27.90
2018-09-11T14:35:44.758Z,27.90
2018-09-11T14:37:47.823Z,27.80
2018-09-11T14:39:52.338Z,27.80
2018-09-11T14:41:56.022Z,27.80
2018-09-11T14:43:59.943Z,27.80
2018-09-11T14:46:03.636Z,27.80
2018-09-11T14:48:07.344Z,27.70
2018-09-11T14:50:11.067Z,27.80
2018-09-11T14:52:13.992Z,27.70
2018-09-11T14:54:16.919Z,27.70
2018-09-11T14:56:19.874Z,27.70
2018-09-11T14:58:23.558Z,27.70
2018-09-11T15:00:26.567Z,27.70
2018-09-11T15:02:30.399Z,27.70
2018-09-11T15:04:33.328Z,27.70
2018-09-11T15:06:36.254Z,27.70
2018-09-11T15:08:39.387Z,27.70
2018-09-11T15:10:42.328Z,27.60
2018-09-11T15:12:45.261Z,27.60
2018-09-11T15:14:48.217Z,27.60
2018-09-11T15:16:51.146Z,27.60
2018-09-11T15:18:54.825Z,27.60
2018-09-11T15:20:57.970Z,27.60
2018-09-11T15:23:00.894Z,27.50
2018-09-11T15:25:03.811Z,27.50
2018-09-11T15:27:06.892Z,27.60
2018-09-11T15:29:09.823Z,27.50
2018-09-11T15:31:12.734Z,27.50
2018-09-11T15:33:15.702Z,27.50
2018-09-11T15:35:18.623Z,27.50
2018-09-11T15:37:22.306Z,27.50
2018-09-11T15:39:26.118Z,27.50
2018-09-11T15:41:29.803Z,27.50
2018-09-11T15:43:33.498Z,27.50
2018-09-11T15:45:36.450Z,27.50
2018-09-11T15:47:39.369Z,27.50
2018-09-11T15:49:43.058Z,27.50
2018-09-11T15:51:46.016Z,27.50
2018-09-11T15:53:49.047Z,27.50
2018-09-11T15:55:52.757Z,27.50
2018-09-11T15:57:58.386Z,27.50
2018-09-11T16:00:02.106Z,27.50
2018-09-11T16:02:05.026Z,27.50
2018-09-11T16:04:08.013Z,27.50
2018-09-11T16:06:10.942Z,27.50
2018-09-11T16:08:14.629Z,27.50
2018-09-11T16:10:18.389Z,27.50
2018-09-11T16:12:21.306Z,27.50
2018-09-11T16:14:24.288Z,27.50
2018-09-11T16:16:27.246Z,27.50
2018-09-11T16:18:30.272Z,27.50
2018-09-11T16:20:34.039Z,27.50
2018-09-11T16:22:37.138Z,27.50
2018-09-11T16:24:40.553Z,27.50
2018-09-11T16:26:43.523Z,27.50
2018-09-11T16:28:46.471Z,27.50
2018-09-11T16:30:49.402Z,27.50
2018-09-11T16:32:53.207Z,27.50
2018-09-11T16:34:56.930Z,27.50
2018-09-11T16:36:59.874Z,27.50
2018-09-11T16:39:03.559Z,27.50
2018-09-11T16:41:06.597Z,27.50
2018-09-11T16:43:09.517Z,27.50
2018-09-11T16:45:12.442Z,27.50
2018-09-11T16:47:15.517Z,27.50
2018-09-11T16:49:19.194Z,27.50
2018-09-11T16:51:22.199Z,27.40
2018-09-11T16:53:25.922Z,27.40
2018-09-11T16:55:28.846Z,27.40
2018-09-11T16:57:31.777Z,27.40
2018-09-11T16:59:34.722Z,27.40
2018-09-11T17:01:37.640Z,27.40
2018-09-11T17:03:42.198Z,27.40
2018-09-11T17:05:45.174Z,27.40
2018-09-11T17:07:48.220Z,27.40
2018-09-11T17:09:51.904Z,27.30
2018-09-11T17:11:55.650Z,27.30
2018-09-11T17:13:58.576Z,27.30
2018-09-11T17:16:01.517Z,27.30
2018-09-11T17:18:04.562Z,27.30
2018-09-11T17:20:08.287Z,27.20
2018-09-11T17:22:11.247Z,27.20
2018-09-11T17:24:14.962Z,27.20
2018-09-11T17:26:17.898Z,27.20
2018-09-11T17:28:20.829Z,27.20
2018-09-11T17:30:23.826Z,27.10
2018-09-11T17:32:26.742Z,27.10
2018-09-11T17:34:29.665Z,27.10
2018-09-11T17:36:32.624Z,27.10
2018-09-11T17:38:36.322Z,27.00
2018-09-11T17:40:40.018Z,27.00
2018-09-11T17:42:43.004Z,27.00
2018-09-11T17:44:46.718Z,26.90
2018-09-11T17:46:50.420Z,26.90
2018-09-11T17:48:54.224Z,26.80
2018-09-11T17:50:57.084Z,26.80
2018-09-11T17:53:00.124Z,26.80
2018-09-11T17:55:03.085Z,26.70
2018-09-11T17:57:05.996Z,26.70
2018-09-11T17:59:08.919Z,26.60
2018-09-11T18:01:11.878Z,26.60
2018-09-11T18:03:14.903Z,26.60
2018-09-11T18:05:17.834Z,26.60
2018-09-11T18:07:20.822Z,26.50
2018-09-11T18:09:23.739Z,26.40
2018-09-11T18:11:27.435Z,26.40
2018-09-11T18:13:31.160Z,26.30
2018-09-11T18:15:34.093Z,26.30
2018-09-11T18:17:37.056Z,26.20
2018-09-11T18:19:40.022Z,26.20
2018-09-11T18:21:42.942Z,26.20
2018-09-11T18:23:45.966Z,26.10
2018-09-11T18:25:49.705Z,26.00
2018-09-11T18:27:52.617Z,26.00
2018-09-11T18:29:55.537Z,25.90
2018-09-11T18:31:58.610Z,25.90
2018-09-11T18:34:02.308Z,25.80
2018-09-11T18:36:05.986Z,25.80
2018-09-11T18:38:09.710Z,25.70
2018-09-11T18:40:13.409Z,25.60
2018-09-11T18:42:17.108Z,25.60
2018-09-11T18:44:20.857Z,25.50
2018-09-11T18:46:23.858Z,25.50
2018-09-11T18:48:26.877Z,25.50
2018-09-11T18:50:30.594Z,25.40
2018-09-11T18:52:33.525Z,25.40
2018-09-11T18:54:36.447Z,25.30
2018-09-11T18:56:39.525Z,25.30
2018-09-11T18:58:43.225Z,25.20
2018-09-11T19:00:46.966Z,25.20
2018-09-11T19:02:49.925Z,25.10
2018-09-11T19:04:52.846Z,25.10
2018-09-11T19:06:55.763Z,25.10
2018-09-11T19:08:59.494Z,25.00
2018-09-11T19:11:02.482Z,25.00
2018-09-11T19:13:06.143Z,24.90
2018-09-11T19:15:09.957Z,24.80
2018-09-11T19:17:13.701Z,24.80
2018-09-11T19:19:16.902Z,24.80
2018-09-11T19:21:19.870Z,24.80
2018-09-11T19:23:22.794Z,24.70
2018-09-11T19:25:25.820Z,24.70
2018-09-11T19:27:28.763Z,24.60
2018-09-11T19:29:31.700Z,24.60
2018-09-11T19:31:34.619Z,24.50
2018-09-11T19:33:37.674Z,24.50
2018-09-11T19:35:40.590Z,24.50
2018-09-11T19:37:43.532Z,24.40
2018-09-11T19:39:46.498Z,24.40
2018-09-11T19:41:49.455Z,24.30
2018-09-11T19:43:53.156Z,24.20
2018-09-11T19:45:56.959Z,24.20
2018-09-11T19:47:59.898Z,24.10
2018-09-11T19:50:02.913Z,24.10
2018-09-11T19:52:05.834Z,24.10
2018-09-11T19:54:08.771Z,24.00
2018-09-11T19:56:11.723Z,24.00
2018-09-11T19:58:14.684Z,23.90
2018-09-11T20:00:17.590Z,23.80
2018-09-11T20:02:20.546Z,23.80
2018-09-11T20:04:24.273Z,23.70
2018-09-11T20:06:27.266Z,23.70
2018-09-11T20:08:30.227Z,23.60
2018-09-11T20:10:33.160Z,23.60
2018-09-11T20:12:36.963Z,23.40
2018-09-11T20:14:41.531Z,23.40
2018-09-11T20:16:44.452Z,23.40
2018-09-11T20:18:47.387Z,23.40
2018-09-11T20:20:50.347Z,23.30
2018-09-11T20:22:53.279Z,23.30
2018-09-11T20:24:56.246Z,23.20
2018-09-11T20:26:59.279Z,23.20
2018-09-11T20:29:02.974Z,23.10
2018-09-11T20:31:06.710Z,23.10
2018-09-11T20:33:09.630Z,23.00
2018-09-11T20:35:12.647Z,23.00
2018-09-11T20:37:16.362Z,22.90
2018-09-11T20:39:19.282Z,22.90
2018-09-11T20:41:22.214Z,22.90
2018-09-11T20:43:25.967Z,22.80
2018-09-11T20:45:28.995Z,22.80
2018-09-11T20:47:32.768Z,22.80
2018-09-11T20:49:35.726Z,22.70
2018-09-11T20:51:38.761Z,22.70
2018-09-11T20:53:42.462Z,22.70
2018-09-11T20:55:46.219Z,22.60
2018-09-11T20:57:49.145Z,22.60
2018-09-11T20:59:52.893Z,22.50
2018-09-11T21:01:55.818Z,22.50
2018-09-11T21:03:59.529Z,22.50
2018-09-11T21:06:03.346Z,22.40
2018-09-11T21:08:06.265Z,22.40
2018-09-11T21:10:09.296Z,22.40
2018-09-11T21:12:13.098Z,22.30
2018-09-11T21:14:16.794Z,22.30
2018-09-11T21:16:20.484Z,22.30
2018-09-11T21:18:24.231Z,22.20
2018-09-11T21:20:27.157Z,22.20
2018-09-11T21:22:30.085Z,22.20
2018-09-11T21:24:33.035Z,22.20
2018-09-11T21:26:36.727Z,22.10
2018-09-11T21:28:39.714Z,22.10
2018-09-11T21:30:42.658Z,22.10
2018-09-11T21:32:45.601Z,22.00
2018-09-11T21:34:48.693Z,22.00
2018-09-11T21:36:51.622Z,22.00
2018-09-11T21:38:54.643Z,21.90
2018-09-11T21:40:58.445Z,21.80
2018-09-11T21:43:02.130Z,21.80
2018-09-11T21:45:05.843Z,21.80
2018-09-11T21:47:09.562Z,21.80
2018-09-11T21:49:12.479Z,21.70
2018-09-11T21:51:15.408Z,21.70
2018-09-11T21:53:19.330Z,21.70
2018-09-11T21:55:22.258Z,21.70
2018-09-11T21:57:25.280Z,21.70
2018-09-11T21:59:29.026Z,21.60
2018-09-11T22:01:32.064Z,21.60
2018-09-11T22:03:35.766Z,21.60
2018-09-11T22:05:39.515Z,21.60
2018-09-11T22:07:43.982Z,21.60
2018-09-11T22:09:47.785Z,21.60
2018-09-11T22:11:51.470Z,21.50
2018-09-11T22:13:55.184Z,21.50
2018-09-11T22:15:58.913Z,21.50
2018-09-11T22:18:01.838Z,21.50
2018-09-11T22:20:04.764Z,21.50
2018-09-11T22:22:07.833Z,21.50
2018-09-11T22:24:11.509Z,21.50
2018-09-11T22:26:15.227Z,21.40
2018-09-11T22:28:18.955Z,21.40
2018-09-11T22:30:21.881Z,21.40
2018-09-11T22:32:24.814Z,21.40
2018-09-11T22:34:27.778Z,21.40
2018-09-11T22:36:31.587Z,21.40
2018-09-11T22:38:35.261Z,21.30
2018-09-11T22:40:38.206Z,21.30
2018-09-11T22:42:41.150Z,21.30
2018-09-11T22:44:44.191Z,21.30
2018-09-11T22:46:47.124Z,21.30
2018-09-11T22:48:50.062Z,21.20
2018-09-11T22:50:53.058Z,21.20
2018-09-11T22:52:56.751Z,21.20
2018-09-11T22:54:59.670Z,21.20
2018-09-11T22:57:02.622Z,21.10
2018-09-11T22:59:06.309Z,21.10
2018-09-11T23:01:09.324Z,21.10
2018-09-11T23:03:13.127Z,21.00
2018-09-11T23:05:16.929Z,21.00
2018-09-11T23:07:20.637Z,21.00
2018-09-11T23:09:24.329Z,21.00
2018-09-11T23:11:28.005Z,21.00
2018-09-11T23:13:31.217Z,20.90
2018-09-11T23:15:34.889Z,20.90
2018-09-11T23:17:37.813Z,20.90
2018-09-11T23:19:40.776Z,20.80
2018-09-11T23:21:44.466Z,20.80
2018-09-11T23:23:48.170Z,20.70
2018-09-11T23:25:51.219Z,20.70
2018-09-11T23:27:54.146Z,20.70
2018-09-11T23:29:57.947Z,20.70
2018-09-11T23:32:01.663Z,20.60
2018-09-11T23:34:04.583Z,20.60
2018-09-11T23:36:07.495Z,20.60
2018-09-11T23:38:10.541Z,20.60
2018-09-11T23:40:13.580Z,20.50
2018-09-11T23:42:17.258Z,20.50
2018-09-11T23:44:21.728Z,20.50
2018-09-11T23:46:24.643Z,20.50
2018-09-11T23:48:27.619Z,20.50
2018-09-11T23:50:30.584Z,20.50
2018-09-11T23:52:33.503Z,20.40
2018-09-11T23:54:36.466Z,20.40
2018-09-11T23:56:39.387Z,20.40
2018-09-11T23:58:43.070Z,20.30
